sensor_id;sensor_type;location;lat;lon;timestamp;pressure;altitude;pressure_sealevel;temperature;humidity
58243;BME280;50118;53.232;8.252;2023-04-29T00:00:31;101028.31;;;7.89;100.00
58243;BME280;50118;53.232;8.252;2023-04-29T00:02:57;101030.25;;;7.87;100.00
58243;BME280;50118;53.232;8.252;2023-04-29T00:05:22;101036.97;;;7.91;100.00
58243;BME280;50118;53.232;8.252;2023-04-29T00:07:48;101050.13;;;7.93;100.00
58243;BME280;50118;53.232;8.252;2023-04-29T00:10:13;101048.19;;;7.95;100.00
58243;BME280;50118;53.232;8.252;2023-04-29T00:12:39;101045.91;;;7.90;100.00
58243;BME280;50118;53.232;8.252;2023-04-29T00:15:06;101047.72;;;7.90;100.00
58243;BME280;50118;53.232;8.252;2023-04-29T00:17:33;101053.25;;;7.86;100.00
58243;BME280;50118;53.232;8.252;2023-04-29T00:19:58;101053.50;;;7.83;100.00
58243;BME280;50118;53.232;8.252;2023-04-29T00:22:24;101057.84;;;7.84;100.00
58243;BME280;50118;53.232;8.252;2023-04-29T00:24:49;101068.06;;;7.78;100.00
58243;BME280;50118;53.232;8.252;2023-04-29T00:27:15;101062.41;;;7.71;100.00
58243;BME280;50118;53.232;8.252;2023-04-29T00:29:42;101069.63;;;7.69;100.00
58243;BME280;50118;53.232;8.252;2023-04-29T00:32:07;101072.06;;;7.72;100.00
58243;BME280;50118;53.232;8.252;2023-04-29T00:34:33;101069.28;;;7.74;100.00
58243;BME280;50118;53.232;8.252;2023-04-29T00:36:58;101081.94;;;7.70;100.00
58243;BME280;50118;53.232;8.252;2023-04-29T00:39:24;101077.22;;;7.62;100.00
58243;BME280;50118;53.232;8.252;2023-04-29T00:41:50;101080.72;;;7.63;100.00
58243;BME280;50118;53.232;8.252;2023-04-29T00:44:15;101084.31;;;7.62;100.00
58243;BME280;50118;53.232;8.252;2023-04-29T00:46:41;101085.78;;;7.55;100.00
58243;BME280;50118;53.232;8.252;2023-04-29T00:49:08;101090.56;;;7.50;100.00
58243;BME280;50118;53.232;8.252;2023-04-29T00:51:35;101083.78;;;7.45;100.00
58243;BME280;50118;53.232;8.252;2023-04-29T00:54:02;101089.59;;;7.51;100.00
58243;BME280;50118;53.232;8.252;2023-04-29T00:56:30;101091.75;;;7.45;100.00
58243;BME280;50118;53.232;8.252;2023-04-29T00:58:57;101087.19;;;7.47;100.00
58243;BME280;50118;53.232;8.252;2023-04-29T01:01:22;101093.44;;;7.46;100.00
58243;BME280;50118;53.232;8.252;2023-04-29T01:03:49;101099.69;;;7.45;100.00
58243;BME280;50118;53.232;8.252;2023-04-29T01:12:08;101114.38;;;7.38;100.00
58243;BME280;50118;53.232;8.252;2023-04-29T01:14:36;101111.00;;;7.36;100.00
58243;BME280;50118;53.232;8.252;2023-04-29T01:17:17;101118.69;;;7.28;100.00
58243;BME280;50118;53.232;8.252;2023-04-29T01:19:47;101117.50;;;7.32;100.00
58243;BME280;50118;53.232;8.252;2023-04-29T01:22:14;101122.66;;;7.34;100.00
58243;BME280;50118;53.232;8.252;2023-04-29T01:24:41;101127.13;;;7.33;100.00
58243;BME280;50118;53.232;8.252;2023-04-29T01:27:27;101124.38;;;7.35;100.00
58243;BME280;50118;53.232;8.252;2023-04-29T01:30:16;101127.13;;;7.33;100.00
58243;BME280;50118;53.232;8.252;2023-04-29T01:38:28;101141.59;;;7.29;100.00
58243;BME280;50118;53.232;8.252;2023-04-29T01:41:09;101141.38;;;7.32;100.00
58243;BME280;50118;53.232;8.252;2023-04-29T01:43:36;101144.75;;;7.34;100.00
58243;BME280;50118;53.232;8.252;2023-04-29T01:46:03;101149.66;;;7.27;100.00
58243;BME280;50118;53.232;8.252;2023-04-29T01:48:30;101154.06;;;7.27;100.00
58243;BME280;50118;53.232;8.252;2023-04-29T01:50:56;101153.84;;;7.30;100.00
58243;BME280;50118;53.232;8.252;2023-04-29T01:53:21;101155.56;;;7.31;100.00
58243;BME280;50118;53.232;8.252;2023-04-29T01:55:47;101159.03;;;7.32;100.00
58243;BME280;50118;53.232;8.252;2023-04-29T01:58:13;101160.63;;;7.34;100.00
58243;BME280;50118;53.232;8.252;2023-04-29T02:00:38;101168.91;;;7.29;100.00
58243;BME280;50118;53.232;8.252;2023-04-29T02:03:04;101166.59;;;7.25;100.00
58243;BME280;50118;53.232;8.252;2023-04-29T02:05:29;101168.31;;;7.26;100.00
58243;BME280;50118;53.232;8.252;2023-04-29T02:07:58;101175.53;;;7.24;100.00
58243;BME280;50118;53.232;8.252;2023-04-29T02:10:23;101191.44;;;7.24;100.00
58243;BME280;50118;53.232;8.252;2023-04-29T02:12:48;101183.47;;;7.24;100.00
58243;BME280;50118;53.232;8.252;2023-04-29T02:15:14;101191.19;;;7.27;100.00
58243;BME280;50118;53.232;8.252;2023-04-29T02:17:39;101196.09;;;7.20;100.00
58243;BME280;50118;53.232;8.252;2023-04-29T02:20:06;101201.50;;;7.19;100.00
58243;BME280;50118;53.232;8.252;2023-04-29T02:22:31;101185.25;;;7.23;100.00
58243;BME280;50118;53.232;8.252;2023-04-29T02:24:57;101181.06;;;7.21;100.00
58243;BME280;50118;53.232;8.252;2023-04-29T02:27:22;101188.38;;;7.17;100.00
58243;BME280;50118;53.232;8.252;2023-04-29T02:29:48;101200.53;;;7.20;100.00
58243;BME280;50118;53.232;8.252;2023-04-29T02:32:14;101196.09;;;7.20;100.00
58243;BME280;50118;53.232;8.252;2023-04-29T02:34:40;101203.19;;;7.20;100.00
58243;BME280;50118;53.232;8.252;2023-04-29T02:37:05;101208.72;;;7.17;100.00
58243;BME280;50118;53.232;8.252;2023-04-29T02:39:30;101212.44;;;7.14;100.00
58243;BME280;50118;53.232;8.252;2023-04-29T02:41:56;101216.66;;;7.17;100.00
58243;BME280;50118;53.232;8.252;2023-04-29T02:44:22;101219.44;;;7.15;100.00
58243;BME280;50118;53.232;8.252;2023-04-29T02:46:48;101220.50;;;7.13;100.00
58243;BME280;50118;53.232;8.252;2023-04-29T02:49:13;101222.41;;;7.10;100.00
58243;BME280;50118;53.232;8.252;2023-04-29T02:51:39;101225.59;;;7.16;100.00
58243;BME280;50118;53.232;8.252;2023-04-29T02:54:05;101227.50;;;7.14;100.00
58243;BME280;50118;53.232;8.252;2023-04-29T02:56:31;101227.72;;;7.10;100.00
58243;BME280;50118;53.232;8.252;2023-04-29T02:58:56;101229.16;;;7.15;100.00
58243;BME280;50118;53.232;8.252;2023-04-29T03:01:22;101235.56;;;7.12;100.00
58243;BME280;50118;53.232;8.252;2023-04-29T03:03:48;101225.06;;;7.10;100.00
58243;BME280;50118;53.232;8.252;2023-04-29T03:06:13;101234.69;;;7.11;100.00
58243;BME280;50118;53.232;8.252;2023-04-29T03:08:40;101244.44;;;7.11;100.00
58243;BME280;50118;53.232;8.252;2023-04-29T03:11:05;101247.81;;;7.13;100.00
58243;BME280;50118;53.232;8.252;2023-04-29T03:13:31;101245.19;;;7.13;100.00
58243;BME280;50118;53.232;8.252;2023-04-29T03:15:56;101252.28;;;7.13;100.00
58243;BME280;50118;53.232;8.252;2023-04-29T03:18:23;101252.06;;;7.16;100.00
58243;BME280;50118;53.232;8.252;2023-04-29T03:20:49;101255.88;;;7.11;100.00
58243;BME280;50118;53.232;8.252;2023-04-29T03:23:14;101257.81;;;7.09;100.00
58243;BME280;50118;53.232;8.252;2023-04-29T03:25:40;101252.28;;;7.13;100.00
58243;BME280;50118;53.232;8.252;2023-04-29T03:28:05;101254.22;;;7.10;100.00
58243;BME280;50118;53.232;8.252;2023-04-29T03:30:31;101264.81;;;7.10;100.00
58243;BME280;50118;53.232;8.252;2023-04-29T03:32:57;101266.38;;;7.13;100.00
58243;BME280;50118;53.232;8.252;2023-04-29T03:35:22;101274.44;;;7.11;100.00
58243;BME280;50118;53.232;8.252;2023-04-29T03:37:48;101267.56;;;7.09;100.00
58243;BME280;50118;53.232;8.252;2023-04-29T03:40:13;101279.22;;;7.06;100.00
58243;BME280;50118;53.232;8.252;2023-04-29T03:42:39;101272.97;;;7.07;100.00
58243;BME280;50118;53.232;8.252;2023-04-29T03:45:04;101276.44;;;7.08;100.00
58243;BME280;50118;53.232;8.252;2023-04-29T03:47:31;101282.84;;;7.05;100.00
58243;BME280;50118;53.232;8.252;2023-04-29T03:49:56;101286.94;;;7.09;100.00
58243;BME280;50118;53.232;8.252;2023-04-29T03:52:21;101282.63;;;7.08;100.00
58243;BME280;50118;53.232;8.252;2023-04-29T03:54:47;101296.59;;;7.10;100.00
58243;BME280;50118;53.232;8.252;2023-04-29T03:57:12;101303.81;;;7.08;100.00
58243;BME280;50118;53.232;8.252;2023-04-29T03:59:38;101294.88;;;7.09;100.00
58243;BME280;50118;53.232;8.252;2023-04-29T04:02:04;101303.56;;;7.11;100.00
58243;BME280;50118;53.232;8.252;2023-04-29T04:04:29;101311.31;;;7.15;100.00
58243;BME280;50118;53.232;8.252;2023-04-29T04:06:55;101320.34;;;7.12;100.00
58243;BME280;50118;53.232;8.252;2023-04-29T04:09:20;101310.34;;;7.16;100.00
58243;BME280;50118;53.232;8.252;2023-04-29T04:11:46;101317.34;;;7.17;100.00
58243;BME280;50118;53.232;8.252;2023-04-29T04:14:11;101331.56;;;7.16;100.00
58243;BME280;50118;53.232;8.252;2023-04-29T04:16:37;101336.84;;;7.16;100.00
58243;BME280;50118;53.232;8.252;2023-04-29T04:19:02;101340.56;;;7.13;100.00
58243;BME280;50118;53.232;8.252;2023-04-29T04:21:28;101342.56;;;7.09;100.00
58243;BME280;50118;53.232;8.252;2023-04-29T04:23:54;101348.50;;;7.13;100.00
58243;BME280;50118;53.232;8.252;2023-04-29T04:26:19;101355.50;;;7.14;100.00
58243;BME280;50118;53.232;8.252;2023-04-29T04:28:45;101353.81;;;7.13;100.00
58243;BME280;50118;53.232;8.252;2023-04-29T04:31:11;101350.09;;;7.16;100.00
58243;BME280;50118;53.232;8.252;2023-04-29T04:33:39;101358.47;;;7.09;100.00
58243;BME280;50118;53.232;8.252;2023-04-29T04:36:05;101367.69;;;7.17;100.00
58243;BME280;50118;53.232;8.252;2023-04-29T04:38:30;101367.47;;;7.20;100.00
58243;BME280;50118;53.232;8.252;2023-04-29T04:40:57;101378.16;;;7.18;100.00
58243;BME280;50118;53.232;8.252;2023-04-29T04:43:22;101376.50;;;7.17;100.00
58243;BME280;50118;53.232;8.252;2023-04-29T04:45:48;101379.25;;;7.16;100.00
58243;BME280;50118;53.232;8.252;2023-04-29T04:48:13;101396.81;;;7.17;100.00
58243;BME280;50118;53.232;8.252;2023-04-29T04:50:39;101389.22;;;7.12;100.00
58243;BME280;50118;53.232;8.252;2023-04-29T04:53:04;101391.53;;;7.17;100.00
58243;BME280;50118;53.232;8.252;2023-04-29T04:55:31;101394.69;;;7.22;100.00
58243;BME280;50118;53.232;8.252;2023-04-29T04:57:57;101403.81;;;7.18;100.00
58243;BME280;50118;53.232;8.252;2023-04-29T05:00:23;101397.69;;;7.17;100.00
58243;BME280;50118;53.232;8.252;2023-04-29T05:02:48;101400.56;;;7.14;100.00
58243;BME280;50118;53.232;8.252;2023-04-29T05:05:13;101403.19;;;7.14;100.00
58243;BME280;50118;53.232;8.252;2023-04-29T05:07:39;101402.34;;;7.14;100.00
58243;BME280;50118;53.232;8.252;2023-04-29T05:10:05;101405.00;;;7.14;100.00
58243;BME280;50118;53.232;8.252;2023-04-29T05:12:32;101410.31;;;7.14;100.00
58243;BME280;50118;53.232;8.252;2023-04-29T05:14:59;101420.66;;;7.17;100.00
58243;BME280;50118;53.232;8.252;2023-04-29T05:17:25;101419.09;;;7.14;100.00
58243;BME280;50118;53.232;8.252;2023-04-29T05:19:50;101410.84;;;7.19;100.00
58243;BME280;50118;53.232;8.252;2023-04-29T05:22:15;101425.03;;;7.18;100.00
58243;BME280;50118;53.232;8.252;2023-04-29T05:24:41;101432.13;;;7.17;100.00
58243;BME280;50118;53.232;8.252;2023-04-29T05:27:06;101435.63;;;7.18;100.00
58243;BME280;50118;53.232;8.252;2023-04-29T05:29:32;101441.56;;;7.21;100.00
58243;BME280;50118;53.232;8.252;2023-04-29T05:31:57;101435.41;;;7.21;100.00
58243;BME280;50118;53.232;8.252;2023-04-29T05:34:23;101443.47;;;7.19;100.00
58243;BME280;50118;53.232;8.252;2023-04-29T05:36:49;101442.09;;;7.14;100.00
58243;BME280;50118;53.232;8.252;2023-04-29T05:39:14;101447.28;;;7.15;100.00
58243;BME280;50118;53.232;8.252;2023-04-29T05:41:40;101449.19;;;7.13;100.00
58243;BME280;50118;53.232;8.252;2023-04-29T05:44:05;101454.91;;;7.20;100.00
58243;BME280;50118;53.232;8.252;2023-04-29T05:46:30;101462.13;;;7.18;100.00
58243;BME280;50118;53.232;8.252;2023-04-29T05:48:56;101468.69;;;7.25;100.00
58243;BME280;50118;53.232;8.252;2023-04-29T05:51:21;101462.66;;;7.23;100.00
58243;BME280;50118;53.232;8.252;2023-04-29T05:53:47;101469.75;;;7.35;100.00
58243;BME280;50118;53.232;8.252;2023-04-29T05:56:12;101474.22;;;7.35;100.00
58243;BME280;50118;53.232;8.252;2023-04-29T05:58:37;101469.00;;;7.33;100.00
58243;BME280;50118;53.232;8.252;2023-04-29T06:01:03;101466.16;;;7.36;100.00
58243;BME280;50118;53.232;8.252;2023-04-29T06:03:28;101481.84;;;7.39;100.00
58243;BME280;50118;53.232;8.252;2023-04-29T06:05:55;101481.84;;;7.39;100.00
58243;BME280;50118;53.232;8.252;2023-04-29T06:08:20;101486.50;;;7.36;100.00
58243;BME280;50118;53.232;8.252;2023-04-29T06:10:46;101488.41;;;7.46;100.00
58243;BME280;50118;53.232;8.252;2023-04-29T06:13:12;101500.91;;;7.57;100.00
58243;BME280;50118;53.232;8.252;2023-04-29T06:15:37;101503.66;;;7.56;100.00
58243;BME280;50118;53.232;8.252;2023-04-29T06:18:03;101515.97;;;7.57;100.00
58243;BME280;50118;53.232;8.252;2023-04-29T06:20:28;101513.44;;;7.68;100.00
58243;BME280;50118;53.232;8.252;2023-04-29T06:22:54;101516.94;;;7.69;100.00
58243;BME280;50118;53.232;8.252;2023-04-29T06:25:19;101515.13;;;7.69;100.00
58243;BME280;50118;53.232;8.252;2023-04-29T06:27:45;101517.25;;;7.64;100.00
58243;BME280;50118;53.232;8.252;2023-04-29T06:30:10;101520.53;;;7.80;100.00
58243;BME280;50118;53.232;8.252;2023-04-29T06:32:40;101518.81;;;7.79;100.00
58243;BME280;50118;53.232;8.252;2023-04-29T06:35:05;101525.28;;;7.88;100.00
58243;BME280;50118;53.232;8.252;2023-04-29T06:37:31;101528.03;;;7.99;100.00
58243;BME280;50118;53.232;8.252;2023-04-29T06:39:57;101521.22;;;8.08;100.00
58243;BME280;50118;53.232;8.252;2023-04-29T06:42:22;101532.84;;;8.18;100.00
58243;BME280;50118;53.232;8.252;2023-04-29T06:44:47;101545.19;;;8.19;100.00
58243;BME280;50118;53.232;8.252;2023-04-29T06:47:13;101542.38;;;8.34;100.00
58243;BME280;50118;53.232;8.252;2023-04-29T06:49:39;101536.94;;;8.48;100.00
58243;BME280;50118;53.232;8.252;2023-04-29T06:52:04;101545.13;;;8.45;100.00
58243;BME280;50118;53.232;8.252;2023-04-29T06:54:30;101543.50;;;8.55;100.00
58243;BME280;50118;53.232;8.252;2023-04-29T06:56:55;101545.22;;;8.56;100.00
58243;BME280;50118;53.232;8.252;2023-04-29T06:59:22;101544.81;;;8.74;100.00
58243;BME280;50118;53.232;8.252;2023-04-29T07:01:47;101554.34;;;8.76;100.00
58243;BME280;50118;53.232;8.252;2023-04-29T07:04:13;101558.75;;;8.65;100.00
58243;BME280;50118;53.232;8.252;2023-04-29T07:06:39;101568.34;;;8.54;100.00
58243;BME280;50118;53.232;8.252;2023-04-29T07:09:04;101572.72;;;8.55;100.00
58243;BME280;50118;53.232;8.252;2023-04-29T07:11:30;101577.41;;;8.76;100.00
58243;BME280;50118;53.232;8.252;2023-04-29T07:13:55;101578.34;;;8.75;100.00
58243;BME280;50118;53.232;8.252;2023-04-29T07:16:20;101582.53;;;8.90;100.00
58243;BME280;50118;53.232;8.252;2023-04-29T07:18:49;101582.53;;;8.90;100.00
58243;BME280;50118;53.232;8.252;2023-04-29T07:21:14;101586.97;;;9.03;100.00
58243;BME280;50118;53.232;8.252;2023-04-29T07:23:40;101593.28;;;9.13;100.00
58243;BME280;50118;53.232;8.252;2023-04-29T07:26:12;101589.25;;;9.07;100.00
58243;BME280;50118;53.232;8.252;2023-04-29T07:28:40;101592.22;;;8.91;100.00
58243;BME280;50118;53.232;8.252;2023-04-29T07:31:06;101599.75;;;8.97;100.00
58243;BME280;50118;53.232;8.252;2023-04-29T07:33:32;101605.06;;;8.97;100.00
58243;BME280;50118;53.232;8.252;2023-04-29T07:35:58;101613.06;;;9.09;100.00
58243;BME280;50118;53.232;8.252;2023-04-29T07:38:23;101611.47;;;9.30;100.00
58243;BME280;50118;53.232;8.252;2023-04-29T07:40:49;101613.91;;;9.45;100.00
58243;BME280;50118;53.232;8.252;2023-04-29T07:43:14;101613.34;;;9.52;100.00
58243;BME280;50118;53.232;8.252;2023-04-29T07:45:39;101625.09;;;9.61;100.00
58243;BME280;50118;53.232;8.252;2023-04-29T07:48:05;101620.00;;;9.58;100.00
58243;BME280;50118;53.232;8.252;2023-04-29T07:50:34;101619.78;;;9.61;100.00
58243;BME280;50118;53.232;8.252;2023-04-29T07:53:01;101623.19;;;9.75;100.00
58243;BME280;50118;53.232;8.252;2023-04-29T07:55:27;101620.31;;;9.78;100.00
58243;BME280;50118;53.232;8.252;2023-04-29T07:57:55;101617.16;;;10.18;100.00
58243;BME280;50118;53.232;8.252;2023-04-29T08:00:21;101624.97;;;10.32;100.00
58243;BME280;50118;53.232;8.252;2023-04-29T08:02:54;101631.84;;;10.46;100.00
58243;BME280;50118;53.232;8.252;2023-04-29T08:05:21;101632.31;;;10.28;100.00
58243;BME280;50118;53.232;8.252;2023-04-29T08:07:47;101640.09;;;10.54;100.00
58243;BME280;50118;53.232;8.252;2023-04-29T08:10:16;101632.69;;;10.58;100.00
58243;BME280;50118;53.232;8.252;2023-04-29T08:12:45;101643.22;;;10.59;100.00
58243;BME280;50118;53.232;8.252;2023-04-29T08:15:10;101647.34;;;11.07;100.00
58243;BME280;50118;53.232;8.252;2023-04-29T08:17:36;101649.59;;;11.23;100.00
58243;BME280;50118;53.232;8.252;2023-04-29T08:20:02;101650.88;;;11.29;100.00
58243;BME280;50118;53.232;8.252;2023-04-29T08:22:28;101659.34;;;11.34;100.00
58243;BME280;50118;53.232;8.252;2023-04-29T08:24:53;101671.13;;;10.88;100.00
58243;BME280;50118;53.232;8.252;2023-04-29T08:27:18;101665.09;;;10.74;100.00
58243;BME280;50118;53.232;8.252;2023-04-29T08:29:46;101679.16;;;10.54;100.00
58243;BME280;50118;53.232;8.252;2023-04-29T08:32:11;101663.44;;;10.39;100.00
58243;BME280;50118;53.232;8.252;2023-04-29T08:34:37;101661.25;;;10.67;100.00
58243;BME280;50118;53.232;8.252;2023-04-29T08:37:03;101671.19;;;10.76;100.00
58243;BME280;50118;53.232;8.252;2023-04-29T08:39:29;101678.41;;;10.97;100.00
58243;BME280;50118;53.232;8.252;2023-04-29T08:41:58;101675.47;;;11.65;100.00
58243;BME280;50118;53.232;8.252;2023-04-29T08:44:27;101678.78;;;11.78;99.83
58243;BME280;50118;53.232;8.252;2023-04-29T08:46:54;101682.97;;;12.13;98.61
58243;BME280;50118;53.232;8.252;2023-04-29T08:49:21;101682.72;;;12.87;93.20
58243;BME280;50118;53.232;8.252;2023-04-29T08:51:48;101691.53;;;12.68;86.29
58243;BME280;50118;53.232;8.252;2023-04-29T08:54:16;101691.91;;;12.02;87.70
58243;BME280;50118;53.232;8.252;2023-04-29T08:56:44;101698.19;;;12.22;85.89
58243;BME280;50118;53.232;8.252;2023-04-29T08:59:13;101698.72;;;12.78;86.45
58243;BME280;50118;53.232;8.252;2023-04-29T09:01:41;101693.94;;;12.41;84.66
58243;BME280;50118;53.232;8.252;2023-04-29T09:04:31;101709.31;;;12.48;88.90
58243;BME280;50118;53.232;8.252;2023-04-29T09:07:01;101709.72;;;12.84;84.12
58243;BME280;50118;53.232;8.252;2023-04-29T09:09:28;101714.56;;;13.20;77.74
58243;BME280;50118;53.232;8.252;2023-04-29T09:11:54;101719.06;;;13.19;74.13
58243;BME280;50118;53.232;8.252;2023-04-29T09:14:21;101719.53;;;12.74;75.74
58243;BME280;50118;53.232;8.252;2023-04-29T09:16:47;101720.34;;;13.25;79.53
58243;BME280;50118;53.232;8.252;2023-04-29T09:19:36;101720.13;;;12.87;79.92
58243;BME280;50118;53.232;8.252;2023-04-29T09:22:03;101720.09;;;13.28;82.02
58243;BME280;50118;53.232;8.252;2023-04-29T09:24:29;101714.88;;;13.95;78.44
58243;BME280;50118;53.232;8.252;2023-04-29T09:26:56;101721.75;;;13.29;77.14
58243;BME280;50118;53.232;8.252;2023-04-29T09:29:23;101722.69;;;12.89;74.80
58243;BME280;50118;53.232;8.252;2023-04-29T09:31:49;101719.59;;;13.03;77.89
58243;BME280;50118;53.232;8.252;2023-04-29T09:34:30;101725.81;;;13.14;83.88
58243;BME280;50118;53.232;8.252;2023-04-29T09:36:56;101735.41;;;13.26;81.95
58243;BME280;50118;53.232;8.252;2023-04-29T09:39:24;101731.88;;;13.16;80.66
58243;BME280;50118;53.232;8.252;2023-04-29T09:44:19;101735.53;;;13.05;75.33
58243;BME280;50118;53.232;8.252;2023-04-29T09:47:13;101726.97;;;13.11;75.46
58243;BME280;50118;53.232;8.252;2023-04-29T09:49:41;101721.66;;;13.70;77.95
58243;BME280;50118;53.232;8.252;2023-04-29T09:52:09;101728.16;;;12.97;78.94
58243;BME280;50118;53.232;8.252;2023-04-29T09:54:36;101735.66;;;13.03;76.80
58243;BME280;50118;53.232;8.252;2023-04-29T09:57:03;101738.72;;;13.78;74.62
58243;BME280;50118;53.232;8.252;2023-04-29T09:59:34;101735.06;;;14.46;69.81
58243;BME280;50118;53.232;8.252;2023-04-29T10:02:01;101737.34;;;14.31;72.36
58243;BME280;50118;53.232;8.252;2023-04-29T10:04:31;101743.88;;;14.09;75.98
58243;BME280;50118;53.232;8.252;2023-04-29T10:06:58;101746.34;;;13.93;75.16
58243;BME280;50118;53.232;8.252;2023-04-29T10:09:25;101750.06;;;14.19;73.34
58243;BME280;50118;53.232;8.252;2023-04-29T10:11:51;101741.38;;;14.92;72.52
58243;BME280;50118;53.232;8.252;2023-04-29T10:14:21;101738.25;;;14.12;74.09
58243;BME280;50118;53.232;8.252;2023-04-29T10:17:12;101748.72;;;13.76;76.05
58243;BME280;50118;53.232;8.252;2023-04-29T10:19:51;101745.03;;;13.87;79.57
58243;BME280;50118;53.232;8.252;2023-04-29T10:22:26;101756.06;;;13.74;78.42
58243;BME280;50118;53.232;8.252;2023-04-29T10:24:54;101747.44;;;13.80;73.85
58243;BME280;50118;53.232;8.252;2023-04-29T10:27:21;101745.03;;;13.97;71.76
58243;BME280;50118;53.232;8.252;2023-04-29T10:29:49;101749.66;;;14.71;71.40
58243;BME280;50118;53.232;8.252;2023-04-29T10:32:16;101751.44;;;14.43;68.26
58243;BME280;50118;53.232;8.252;2023-04-29T10:34:43;101747.25;;;14.31;66.38
58243;BME280;50118;53.232;8.252;2023-04-29T10:37:09;101750.31;;;14.36;67.92
58243;BME280;50118;53.232;8.252;2023-04-29T10:39:43;101748.06;;;14.41;68.71
58243;BME280;50118;53.232;8.252;2023-04-29T10:42:36;101745.06;;;14.91;64.15
58243;BME280;50118;53.232;8.252;2023-04-29T10:45:23;101751.44;;;14.43;71.57
58243;BME280;50118;53.232;8.252;2023-04-29T10:50:29;101754.22;;;14.51;62.39
58243;BME280;50118;53.232;8.252;2023-04-29T10:52:55;101755.91;;;14.05;65.21
58243;BME280;50118;53.232;8.252;2023-04-29T10:55:22;101751.38;;;13.96;70.09
58243;BME280;50118;53.232;8.252;2023-04-29T10:57:48;101754.03;;;14.15;71.35
58243;BME280;50118;53.232;8.252;2023-04-29T11:00:33;101756.28;;;14.77;64.35
58243;BME280;50118;53.232;8.252;2023-04-29T11:03:04;101758.28;;;13.89;65.73
58243;BME280;50118;53.232;8.252;2023-04-29T11:05:30;101762.53;;;13.91;63.50
58243;BME280;50118;53.232;8.252;2023-04-29T11:08:12;101760.00;;;13.70;66.48
58243;BME280;50118;53.232;8.252;2023-04-29T11:10:41;101767.47;;;13.76;66.81
58243;BME280;50118;53.232;8.252;2023-04-29T11:13:20;101759.00;;;13.61;64.79
58243;BME280;50118;53.232;8.252;2023-04-29T11:15:46;101755.41;;;14.29;62.99
58243;BME280;50118;53.232;8.252;2023-04-29T11:18:12;101753.41;;;14.41;60.48
58243;BME280;50118;53.232;8.252;2023-04-29T11:23:28;101762.53;;;13.91;65.51
58243;BME280;50118;53.232;8.252;2023-04-29T11:25:54;101758.25;;;14.75;64.45
58243;BME280;50118;53.232;8.252;2023-04-29T11:28:22;101762.31;;;14.32;61.73
58243;BME280;50118;53.232;8.252;2023-04-29T11:30:49;101756.13;;;15.34;58.49
58243;BME280;50118;53.232;8.252;2023-04-29T11:33:15;101758.72;;;14.61;62.83
58243;BME280;50118;53.232;8.252;2023-04-29T11:35:41;101756.72;;;15.28;62.07
58243;BME280;50118;53.232;8.252;2023-04-29T11:38:08;101773.16;;;14.40;58.53
58243;BME280;50118;53.232;8.252;2023-04-29T11:40:33;101771.75;;;14.36;55.19
58243;BME280;50118;53.232;8.252;2023-04-29T11:42:59;101768.59;;;14.50;58.89
58243;BME280;50118;53.232;8.252;2023-04-29T11:45:25;101770.03;;;14.54;57.33
58243;BME280;50118;53.232;8.252;2023-04-29T11:47:51;101766.09;;;14.86;57.55
58243;BME280;50118;53.232;8.252;2023-04-29T11:50:17;101768.47;;;15.45;60.01
58243;BME280;50118;53.232;8.252;2023-04-29T11:52:45;101771.06;;;15.37;54.45
58243;BME280;50118;53.232;8.252;2023-04-29T11:55:22;101768.94;;;15.58;56.14
58243;BME280;50118;53.232;8.252;2023-04-29T11:57:49;101780.97;;;15.90;57.18
58243;BME280;50118;53.232;8.252;2023-04-29T12:00:16;101777.88;;;15.77;55.04
58243;BME280;50118;53.232;8.252;2023-04-29T12:02:45;101779.50;;;15.42;57.52
58243;BME280;50118;53.232;8.252;2023-04-29T12:05:11;101787.06;;;15.92;55.08
58243;BME280;50118;53.232;8.252;2023-04-29T12:07:38;101784.75;;;14.41;58.46
58243;BME280;50118;53.232;8.252;2023-04-29T12:10:08;101783.97;;;15.05;54.60
58243;BME280;50118;53.232;8.252;2023-04-29T12:12:34;101797.81;;;15.01;57.80
58243;BME280;50118;53.232;8.252;2023-04-29T12:15:01;101793.91;;;14.28;56.62
58243;BME280;50118;53.232;8.252;2023-04-29T12:17:29;101795.31;;;14.89;55.30
58243;BME280;50118;53.232;8.252;2023-04-29T12:19:54;101793.75;;;15.24;53.32
58243;BME280;50118;53.232;8.252;2023-04-29T12:22:20;101800.69;;;14.89;57.71
58243;BME280;50118;53.232;8.252;2023-04-29T12:24:46;101798.34;;;14.77;56.44
58243;BME280;50118;53.232;8.252;2023-04-29T12:27:11;101799.31;;;14.75;57.87
58243;BME280;50118;53.232;8.252;2023-04-29T12:29:38;101794.09;;;14.17;60.60
58243;BME280;50118;53.232;8.252;2023-04-29T12:32:05;101793.81;;;14.10;56.86
58243;BME280;50118;53.232;8.252;2023-04-29T12:34:31;101806.19;;;14.31;63.88
58243;BME280;50118;53.232;8.252;2023-04-29T12:37:00;101806.34;;;14.29;56.18
58243;BME280;50118;53.232;8.252;2023-04-29T12:39:27;101806.59;;;14.93;57.46
58243;BME280;50118;53.232;8.252;2023-04-29T12:41:59;101808.69;;;14.52;57.21
58243;BME280;50118;53.232;8.252;2023-04-29T12:44:26;101808.41;;;14.45;56.61
58243;BME280;50118;53.232;8.252;2023-04-29T12:46:51;101811.81;;;14.94;56.05
58243;BME280;50118;53.232;8.252;2023-04-29T12:49:17;101815.88;;;14.51;53.88
58243;BME280;50118;53.232;8.252;2023-04-29T12:51:43;101812.34;;;14.98;55.53
58243;BME280;50118;53.232;8.252;2023-04-29T12:54:09;101810.94;;;15.31;53.52
58243;BME280;50118;53.232;8.252;2023-04-29T12:56:37;101818.63;;;15.17;52.67
58243;BME280;50118;53.232;8.252;2023-04-29T12:59:06;101811.22;;;15.28;53.11
58243;BME280;50118;53.232;8.252;2023-04-29T13:01:37;101809.25;;;15.03;52.11
58243;BME280;50118;53.232;8.252;2023-04-29T13:04:02;101817.44;;;14.64;56.41
58243;BME280;50118;53.232;8.252;2023-04-29T13:06:30;101821.75;;;13.98;57.01
58243;BME280;50118;53.232;8.252;2023-04-29T13:08:56;101822.81;;;14.44;57.38